4XCWE LLHZ-LLHZ

Flight info

Callsign 4XCWE
Flight time 0h 19m
Altitude 800
Route CVFR
Aircraft C152/L-VD/A

Departure

Time 2026-04-25 18:45
Airport Herzliya Airport (LLHZ)

Arrival

Time 2026-04-25 19:04
Airport Herzliya Airport (LLHZ)
Time Latitude Longitude Altitude Speed Heading
2026-04-25 18:39 32.17881 34.83779 120 ft 0 kts 110°
2026-04-25 18:42 32.17881 34.83780 120 ft 1 kts 110°
2026-04-25 18:42 32.17895 34.83818 121 ft 5 kts 136°
2026-04-25 18:43 32.17893 34.83821 119 ft 0 kts 126°
2026-04-25 18:43 32.17919 34.83834 124 ft 15 kts 337°
2026-04-25 18:43 32.17935 34.83779 122 ft 13 kts 293°
2026-04-25 18:43 32.18033 34.83449 106 ft 67 kts 288°
2026-04-25 18:44 32.18189 34.82895 250 ft 74 kts 287°
2026-04-25 18:44 32.18571 34.82690 390 ft 75 kts 15°
2026-04-25 18:44 32.19057 34.82894 589 ft 70 kts 25°
2026-04-25 18:44 32.19315 34.83357 684 ft 80 kts 104°
2026-04-25 18:45 32.19170 34.83796 711 ft 89 kts 112°
2026-04-25 18:45 32.18861 34.84720 794 ft 93 kts 110°
2026-04-25 18:45 32.18418 34.85254 717 ft 105 kts 177°
2026-04-25 18:45 32.17699 34.85107 658 ft 96 kts 206°
2026-04-25 18:46 32.17607 34.84549 492 ft 72 kts 303°
2026-04-25 18:46 32.17791 34.84224 292 ft 70 kts 292°
2026-04-25 18:46 32.17954 34.83721 124 ft 58 kts 287°
2026-04-25 18:46 32.18090 34.83252 122 ft 71 kts 287°
2026-04-25 18:47 32.18298 34.82728 299 ft 71 kts 330°
2026-04-25 18:47 32.18801 34.82863 401 ft 82 kts 21°
2026-04-25 18:47 32.19270 34.83224 582 ft 72 kts 71°
2026-04-25 18:47 32.19154 34.83849 648 ft 86 kts 113°
2026-04-25 18:48 32.18906 34.84529 706 ft 93 kts 112°
2026-04-25 18:48 32.18598 34.85233 710 ft 98 kts 139°
2026-04-25 18:48 32.17928 34.85247 619 ft 106 kts 204°
2026-04-25 18:48 32.17728 34.84507 460 ft 82 kts 281°
2026-04-25 18:49 32.17891 34.83927 182 ft 75 kts 290°
2026-04-25 18:49 32.18055 34.83373 103 ft 73 kts 287°
2026-04-25 18:49 32.18346 34.82963 294 ft 71 kts 351°
2026-04-25 18:49 32.18850 34.83058 415 ft 80 kts
2026-04-25 18:50 32.19492 34.83134 419 ft 89 kts
2026-04-25 18:50 32.20101 34.83284 545 ft 85 kts 17°
2026-04-25 18:50 32.20612 34.83506 784 ft 75 kts 20°
2026-04-25 18:50 32.21089 34.83723 959 ft 73 kts 20°
2026-04-25 18:51 32.21551 34.83905 1133 ft 73 kts 15°
2026-04-25 18:51 32.21900 34.84010 1195 ft 78 kts 11°
2026-04-25 18:51 32.22631 34.84137 1361 ft 82 kts
2026-04-25 18:51 32.23189 34.84249 1488 ft 82 kts
2026-04-25 18:52 32.23729 34.84380 1668 ft 78 kts
2026-04-25 18:52 32.24300 34.84509 1717 ft 88 kts 15°
2026-04-25 18:52 32.24880 34.84712 1839 ft 84 kts 13°
2026-04-25 18:52 32.25424 34.84899 2002 ft 80 kts 17°
2026-04-25 18:53 32.25941 34.85092 2169 ft 76 kts 13°
2026-04-25 18:53 32.26473 34.85248 2276 ft 81 kts 10°
2026-04-25 18:53 32.27032 34.85376 2377 ft 84 kts 14°
2026-04-25 18:53 32.27199 34.85966 2416 ft 93 kts 123°
2026-04-25 18:54 32.25911 34.86014 2350 ft 99 kts 200°
2026-04-25 18:54 32.25211 34.86026 2272 ft 105 kts 169°
2026-04-25 18:54 32.24520 34.86178 2338 ft 98 kts 174°
2026-04-25 18:55 32.23843 34.86291 2325 ft 103 kts 175°
2026-04-25 18:55 32.23120 34.86384 2233 ft 109 kts 176°
2026-04-25 18:55 32.22340 34.86449 2047 ft 112 kts 179°
2026-04-25 18:55 32.21634 34.86441 1830 ft 91 kts 185°
2026-04-25 18:56 32.21033 34.86361 1625 ft 88 kts 189°
2026-04-25 18:56 32.20353 34.86306 1368 ft 108 kts 181°
2026-04-25 18:56 32.19627 34.86245 1048 ft 98 kts 189°
2026-04-25 18:56 32.19005 34.86068 847 ft 85 kts 202°
2026-04-25 18:57 32.18482 34.85809 732 ft 82 kts 204°
2026-04-25 18:57 32.17957 34.85478 565 ft 87 kts 213°
2026-04-25 18:57 32.17679 34.84970 474 ft 65 kts 274°
2026-04-25 18:57 32.17721 34.84628 378 ft 65 kts 279°
2026-04-25 18:58 32.17883 34.83969 166 ft 61 kts 286°
2026-04-25 18:58 32.18200 34.82918 297 ft 72 kts 289°
2026-04-25 18:58 32.18614 34.82744 427 ft 78 kts 19°
2026-04-25 18:59 32.19337 34.83496 617 ft 72 kts 97°
2026-04-25 18:59 32.18923 34.84774 747 ft 89 kts 112°
2026-04-25 19:00 32.17910 34.85109 688 ft 98 kts 207°
2026-04-25 19:00 32.17719 34.84513 513 ft 70 kts 281°
2026-04-25 19:01 32.18025 34.83481 115 ft 70 kts 287°
2026-04-25 19:01 32.18171 34.83022 305 ft 61 kts 287°
2026-04-25 19:01 32.18569 34.82837 423 ft 70 kts
2026-04-25 19:01 32.19043 34.82966 623 ft 67 kts 14°
2026-04-25 19:02 32.18979 34.84147 716 ft 91 kts 112°
2026-04-25 19:02 32.18687 34.84704 772 ft 74 kts 115°
2026-04-25 19:02 32.18418 34.85258 624 ft 78 kts 159°
2026-04-25 19:03 32.17719 34.84910 475 ft 74 kts 256°
2026-04-25 19:03 32.17827 34.84147 242 ft 73 kts 287°
2026-04-25 19:03 32.17991 34.83594 114 ft 62 kts 287°
2026-04-25 19:04 32.18026 34.83281 109 ft 0 kts 201°